Accueil
METAR-TAF:

METAR-TAF

Aéroports :

El Monte Airport

El Monte, Californie, États-Unis

latitude: 34-05N, longitude: 118-02W, altitude: 90 m

Observation

Le bulletin a été fait il y a 10 heures et 29 minutes, à 03:45 UTC
Vent 5 kt de sud/sud-ouest
Température 21°C
Humidité 21%
Pression 1019 hPa
Visibilité: 16.1 km
Ciel clair

METAR: KEMT 290345Z 21005KT 10SM CLR 21/M02 A3009

Heure: 06:14 (14:14 UTC)


TAF: absent

Observations et prévisions météorologiques de plus de 4000 aéroports (messages METAR et TAF).

Les stations disponibles sont représentées par des disques jaunes et rouges sur la carte.

Passer la souris dessus pour voir le nom de la station.

Cliquer dessus pour voir les observations et prévisions météorologiques.

Pour changer de carte: cliquez sur les boutons verts avec une croix noire pour zoomer, sur le bouton vert avec un tiret pour effectuer un zoom arrière, ou sur les flèches vertes pour les cartes adjacentes.


METAR-TAF: